Adair, Missouri
Current Conditions -  °F | °C
As of 11:38 PM on Wednesday 26 Nov 2014 (Local Time) from KIRK Reporting Station
Haze Haze  
Wind Chill: 20°   Ceiling: 2400
Heat Index: 29°   Visibility: 5mi
Dew Point: 26°   Wind: 10mph
Humidity: 89%   Direction: 350°N
Pressure: 30.31"   Gusts: NA
Location:  40.2186°N, 92.4328°W
Report Text: KIRK 270538Z AUTO 35009KT 5SM BR FEW009 BKN024 OVC038 M02/M03 A3031 RMK AO2 T10171033
Loading
Personal Weather Stations






























Interactive Weather Map New forecast layout! Learn more

10-Day Weather Forecast

Advertisements
Track Severe Weather on mobile